Flight Track Log - Related Links

Times and Time Zones

All times are in EDT time to prevent confusion due to time zone crossing. See the SWA22 flight status page for this flight to view local times or setup timezone preferences in your user account.

Time Position Orientation Groundspeed Altitude Reporting Facility
EDT Latitude Longitude Course Direction KTS MPH feet Rate Location/Type
Mon 11:10:23 AM 26.2153 -97.6478 24° Northeast 126 145 700  Level Houston Center
Mon 11:11:48 AM 26.2792 -97.6158 24° Northeast 244 281 3,600 2,376 Climbing Houston Center
Mon 11:12:04 AM 26.3031 -97.6125 North 259 298 4,700 3,738 Climbing Houston Center
Mon 11:12:49 AM 26.3581 -97.6053 North 284 327 7,400 3,774 Climbing Houston Center
Mon 11:13:06 AM 26.3836 -97.6025 North 287 330 8,600 3,190 Climbing Houston Center
Mon 11:14:08 AM 26.4747 -97.5933 North 303 349 11,600 2,832 Climbing Houston Center
Mon 11:15:11 AM 26.5714 -97.5833 North 346 398 14,500 2,256 Climbing Houston Center
Mon 11:16:13 AM 26.6786 -97.5719 North 409 471 16,300 2,468 Climbing Houston Center
Mon 11:17:15 AM 26.7800 -97.5203 24° Northeast 388 447 19,600 2,710 Climbing Houston Center
Mon 11:18:17 AM 26.8911 -97.4586 26° Northeast 413 475 21,900 2,323 Climbing Houston Center
Mon 11:19:19 AM 27.0056 -97.3928 27° Northeast 426 490 24,400 1,935 Climbing Houston Center
Mon 11:20:21 AM 27.0594 -97.3011 57° Northeast 436 502 25,900 1,597 Climbing Houston Center
Mon 11:21:23 AM 27.0764 -97.1294 84° East 460 529 27,700 1,694 Climbing Houston Center
Mon 11:22:25 AM 27.1233 -96.9961 68° East 488 562 29,400 1,548 Climbing Houston Center
Mon 11:23:27 AM 27.2425 -96.9428 22° Northeast 465 535 30,900 1,839 Climbing Houston Center
Mon 11:24:29 AM 27.3639 -96.8925 20° North 468 539 33,200 1,920 Climbing Houston Center
Mon 11:25:32 AM 27.5025 -96.8300 22° Northeast 460 529 34,900 864 Climbing Houston Center
Mon 11:26:34 AM 27.6228 -96.7786 21° North 460 529 35,000 48 Climbing Houston Center
Mon 11:27:36 AM 27.7447 -96.7267 21° North 466 536 35,000  Level Houston Center
Mon 11:28:38 AM 27.8628 -96.6728 22° Northeast 461 531 35,000  Level Houston Center
Mon 11:29:40 AM 27.9819 -96.6200 21° North 460 529 35,000  Level Houston Center
Mon 11:30:42 AM 28.1028 -96.5672 21° North 464 534 35,000 -145 Level Houston Center
Mon 11:31:44 AM 28.2447 -96.5050 21° North 457 526 34,700 -677 Descending Houston Center
Mon 11:32:46 AM 28.3594 -96.4567 20° North 447 514 33,600 -2,064 Descending Houston Center
Mon 11:33:49 AM 28.4764 -96.4086 20° North 445 512 30,400 -2,976 Descending Houston Center
Mon 11:34:51 AM 28.6028 -96.3494 22° Northeast 474 545 27,400 -2,758 Descending Houston Center
Mon 11:35:53 AM 28.7222 -96.2956 22° Northeast 471 542 24,700 -2,806 Descending Houston Center
Mon 11:36:55 AM 28.8575 -96.2353 21° North 445 512 21,600 -2,710 Descending Houston Center
Mon 11:37:57 AM 28.9661 -96.1872 21° North 427 491 19,100 -2,419 Descending Houston Center
Mon 11:38:59 AM 29.0706 -96.1403 21° North 409 471 16,600 -2,508 Descending Houston Center
Mon 11:39:59 AM 29.1803 -96.0928 21° North 392 451 14,000 -2,129 Descending Houston Center
Mon 11:41:03 AM 29.2703 -96.0514 22° Northeast 382 440 12,200 -1,220 Descending Houston Center
Mon 11:42:02 AM 29.3483 -95.9731 41° Northeast 307 353 11,500 -958 Descending Houston Center
Mon 11:43:02 AM 29.4044 -95.8947 51° Northeast 321 369 10,300 -1,230 Descending Houston Center
Mon 11:44:04 AM 29.4567 -95.8194 51° Northeast 297 342 9,000 -1,463 Descending Houston Center
Mon 11:45:05 AM 29.5128 -95.7433 50° Northeast 297 342 7,300 -1,552 Descending Houston Center
Mon 11:46:00 AM 29.5617 -95.6800 48° Northeast 286 329 6,000 -634 Descending Houston Center
Mon 11:47:08 AM 29.6203 -95.6058 48° Northeast 286 329 6,000 -698 Level Houston Center
Mon 11:48:09 AM 29.6750 -95.5392 47° Northeast 284 327 4,500 -1,033 Descending Houston Center
Mon 11:49:10 AM 29.7267 -95.4825 44° Northeast 226 260 3,900 -1,033 Descending Houston Center
Mon 11:50:11 AM 29.7544 -95.4192 63° Northeast 224 258 2,400 -1,125 Descending Houston Center
Mon 11:51:18 AM 29.7158 -95.3636 129° Southeast 185 213 1,500 -609 Descending Houston Center
Mon 11:52:19 AM 29.6850 -95.3264 134° Southeast 154 177 1,100 -564 Descending Houston Center
Mon 11:53:15 AM 29.6617 -95.3003 136° Southeast 124 143 400 -750 Descending Houston Center
Mon 11:55:00 AM 29.6454 -95.2789 115° Southeast  Level Estimated

Login

Don't have an account? Register now (free) for customized features, flight alerts, and more!